Time;durP1;ratioP1;P1;durP2;ratioP2;P2;SDS_P1;SDS_P2;PMS_P1;PMS_P2;Temp;Humidity;BMP_temperature;BMP_pressure;BME280_temperature;BME280_humidity;BME280_pressure;Samples;Min_cycle;Max_cycle;Signal;HPM_P1;HPM_P2
2023/08/16 00:00:59;;;;;;;1.77;1.27;;;23.80;72.70;;;;;;6150973;23;20005;-27
2023/08/16 00:03:25;;;;;;;2.88;1.20;;;23.80;72.80;;;;;;6164760;23;20055;-27
2023/08/16 00:05:52;;;;;;;1.93;1.17;;;23.80;72.80;;;;;;6150265;23;20009;-27
2023/08/16 00:08:18;;;;;;;2.33;1.20;;;23.70;72.70;;;;;;6167326;23;20010;-27
2023/08/16 00:10:44;;;;;;;2.40;1.20;;;23.70;72.90;;;;;;6161356;23;20354;-27
2023/08/16 00:13:09;;;;;;;1.87;1.40;;;23.70;72.90;;;;;;6161064;23;20009;-27
2023/08/16 00:15:35;;;;;;;3.05;1.45;;;23.70;73.00;;;;;;6160399;23;20013;-27
2023/08/16 00:18:01;;;;;;;1.55;1.30;;;23.70;73.10;;;;;;6164505;23;20203;-26
2023/08/16 00:20:27;;;;;;;2.53;1.30;;;23.70;73.20;;;;;;6130209;23;20001;-27
2023/08/16 00:22:54;;;;;;;1.70;1.10;;;23.70;73.40;;;;;;6153480;23;20012;-26
2023/08/16 00:25:20;;;;;;;1.85;1.13;;;23.60;73.40;;;;;;6162493;23;20586;-27
2023/08/16 00:27:45;;;;;;;1.75;1.20;;;23.50;73.50;;;;;;6161829;23;20013;-27
2023/08/16 00:30:12;;;;;;;1.80;1.10;;;23.50;73.70;;;;;;6164398;23;20312;-27
2023/08/16 00:32:37;;;;;;;2.85;1.20;;;23.50;73.80;;;;;;6108017;23;20009;-26
2023/08/16 00:35:04;;;;;;;1.50;1.20;;;23.50;74.00;;;;;;6162860;23;20013;-27
2023/08/16 00:37:30;;;;;;;2.13;1.20;;;23.50;74.20;;;;;;6145969;23;20013;-27
2023/08/16 00:39:56;;;;;;;1.95;1.30;;;23.50;75.00;;;;;;6160601;23;20001;-27
2023/08/16 00:42:22;;;;;;;2.38;1.20;;;22.80;74.80;;;;;;6166890;23;20177;-27
2023/08/16 00:44:48;;;;;;;2.15;1.40;;;23.50;74.40;;;;;;6157632;23;20005;-27
2023/08/16 00:47:14;;;;;;;2.80;1.40;;;23.50;74.50;;;;;;6156380;23;20332;-27
2023/08/16 00:49:41;;;;;;;1.75;1.30;;;23.50;74.60;;;;;;6167263;23;20095;-26
2023/08/16 00:52:07;;;;;;;3.00;1.58;;;23.40;74.50;;;;;;6145903;23;20541;-27
2023/08/16 00:54:33;;;;;;;1.93;1.20;;;23.40;74.60;;;;;;6166988;23;20107;-26
2023/08/16 00:57:00;;;;;;;2.47;1.25;;;23.40;74.60;;;;;;6165912;23;20300;-26
2023/08/16 00:59:27;;;;;;;1.63;1.27;;;23.40;74.70;;;;;;6139296;23;20467;-26
2023/08/16 01:01:54;;;;;;;2.72;1.55;;;23.40;74.80;;;;;;6156864;23;20008;-26
2023/08/16 01:04:20;;;;;;;1.73;1.40;;;23.30;74.60;;;;;;6163157;23;20191;-24
2023/08/16 01:06:46;;;;;;;2.13;1.40;;;23.30;74.60;;;;;;6129897;23;20048;-25
2023/08/16 01:09:12;;;;;;;1.70;1.50;;;23.30;74.60;;;;;;6161800;23;20036;-25
2023/08/16 01:11:40;;;;;;;2.38;1.40;;;23.30;74.70;;;;;;6167839;23;20040;-24
2023/08/16 01:14:24;;;;;;;2.20;1.30;;;23.20;74.70;;;;;;6164852;23;20191;-25
2023/08/16 01:16:53;;;;;;;2.47;1.47;;;23.20;75.80;;;;;;6135752;23;20036;-24
2023/08/16 01:19:28;;;;;;;2.65;1.30;;;23.20;75.00;;;;;;6167497;23;20533;-23
2023/08/16 01:22:14;;;;;;;2.67;1.60;;;23.20;75.40;;;;;;6168045;23;20011;-25
2023/08/16 01:24:58;;;;;;;3.72;1.50;;;23.10;75.50;;;;;;6160796;23;20001;-24
2023/08/16 01:27:25;;;;;;;2.38;1.30;;;23.10;75.80;;;;;;6163752;23;20196;-24
2023/08/16 01:29:53;;;;;;;1.93;1.50;;;23.10;75.20;;;;;;6164611;23;20013;-24
2023/08/16 01:32:22;;;;;;;1.95;1.40;;;23.10;75.40;;;;;;6155580;23;20491;-24
2023/08/16 01:34:48;;;;;;;1.75;1.50;;;23.00;75.50;;;;;;6168085;23;20009;-24
2023/08/16 01:37:14;;;;;;;2.58;1.40;;;23.00;75.30;;;;;;6167184;23;20005;-25
2023/08/16 01:39:40;;;;;;;3.20;1.57;;;23.00;75.40;;;;;;6150933;23;20447;-24
2023/08/16 01:42:08;;;;;;;1.80;1.48;;;23.00;75.40;;;;;;6116736;23;20482;-25
2023/08/16 01:44:34;;;;;;;2.65;1.60;;;22.90;75.40;;;;;;6166130;23;20444;-24
2023/08/16 01:47:01;;;;;;;2.33;1.52;;;22.90;75.30;;;;;;6136946;23;20525;-25
2023/08/16 01:49:27;;;;;;;2.30;1.45;;;22.90;75.40;;;;;;6130590;23;20568;-24
2023/08/16 01:51:53;;;;;;;2.10;1.37;;;22.90;75.50;;;;;;6142136;23;20079;-23
2023/08/16 01:54:19;;;;;;;1.45;1.35;;;22.80;75.60;;;;;;6154619;23;20541;-24
2023/08/16 01:56:45;;;;;;;1.95;1.42;;;22.80;75.60;;;;;;6170384;23;20048;-24
2023/08/16 01:59:10;;;;;;;2.30;1.40;;;22.80;75.60;;;;;;6141313;23;20404;-25
2023/08/16 02:01:36;;;;;;;1.70;1.40;;;22.80;75.70;;;;;;6162672;23;20088;-23
2023/08/16 02:04:02;;;;;;;2.10;1.17;;;22.80;75.80;;;;;;6139898;23;20037;-25
2023/08/16 02:06:29;;;;;;;2.00;1.30;;;22.70;75.80;;;;;;6158287;23;20221;-24
2023/08/16 02:08:54;;;;;;;3.35;1.40;;;22.70;75.90;;;;;;6167180;23;20013;-24
2023/08/16 02:11:20;;;;;;;1.90;1.40;;;22.70;75.90;;;;;;6152397;23;20096;-24
2023/08/16 02:13:46;;;;;;;2.50;1.40;;;22.70;76.00;;;;;;6170069;23;20005;-27
2023/08/16 02:16:12;;;;;;;2.40;1.20;;;22.70;76.00;;;;;;6160485;23;20008;-26
2023/08/16 02:18:38;;;;;;;1.80;1.30;;;22.70;76.00;;;;;;6142213;23;20001;-27
2023/08/16 02:21:04;;;;;;;2.10;1.40;;;22.70;76.00;;;;;;6153772;23;20080;-26
2023/08/16 02:23:30;;;;;;;1.87;1.37;;;22.70;76.00;;;;;;6168549;23;20399;-27
2023/08/16 02:25:55;;;;;;;1.77;1.40;;;22.70;76.00;;;;;;6138420;23;20005;-26
2023/08/16 02:28:21;;;;;;;1.38;1.27;;;22.70;75.80;;;;;;6155713;23;20245;-27
2023/08/16 02:30:47;;;;;;;2.30;1.30;;;22.70;75.70;;;;;;6169980;23;20001;-26
2023/08/16 02:33:13;;;;;;;2.13;1.30;;;22.70;75.80;;;;;;6109990;23;20219;-27
2023/08/16 02:35:38;;;;;;;1.70;1.33;;;22.60;75.90;;;;;;6161986;23;20009;-27
2023/08/16 02:38:04;;;;;;;1.90;1.40;;;22.60;75.90;;;;;;6164683;23;20071;-26
2023/08/16 02:40:30;;;;;;;3.20;1.17;;;22.60;76.00;;;;;;6167781;23;20001;-26
2023/08/16 02:42:56;;;;;;;2.20;1.50;;;22.60;76.20;;;;;;6129803;23;20016;-26
2023/08/16 02:45:22;;;;;;;3.08;1.38;;;22.60;76.20;;;;;;6167076;23;20836;-26
2023/08/16 02:47:48;;;;;;;2.37;1.40;;;22.50;76.20;;;;;;6164368;23;20028;-26
2023/08/16 02:50:14;;;;;;;1.98;1.40;;;22.50;76.30;;;;;;6138182;23;20013;-26
2023/08/16 02:52:40;;;;;;;2.88;1.67;;;22.50;76.10;;;;;;6159442;23;20001;-26
2023/08/16 02:55:06;;;;;;;1.93;1.53;;;22.50;76.20;;;;;;6166167;23;20009;-26
2023/08/16 02:57:31;;;;;;;2.30;1.33;;;22.40;76.30;;;;;;6168752;23;20080;-26
2023/08/16 02:59:57;;;;;;;2.42;1.50;;;22.40;76.50;;;;;;6155500;23;20084;-26
2023/08/16 03:02:25;;;;;;;2.07;1.53;;;22.40;76.60;;;;;;6162769;23;20675;-26
2023/08/16 03:04:50;;;;;;;2.95;1.48;;;22.30;76.70;;;;;;6167971;23;20005;-26
2023/08/16 03:07:16;;;;;;;3.03;1.47;;;22.30;76.70;;;;;;6153855;23;20202;-26
2023/08/16 03:09:42;;;;;;;4.10;1.55;;;22.20;76.70;;;;;;6165779;23;20012;-27
2023/08/16 03:12:07;;;;;;;2.70;1.50;;;22.20;76.80;;;;;;6135527;23;20534;-26
2023/08/16 03:14:33;;;;;;;2.20;1.60;;;22.20;76.90;;;;;;6155873;23;20240;-27
2023/08/16 03:16:59;;;;;;;2.53;1.70;;;22.20;76.90;;;;;;6137383;23;20048;-26
2023/08/16 03:19:25;;;;;;;2.60;1.40;;;22.10;76.90;;;;;;6158893;23;20115;-26
2023/08/16 03:21:55;;;;;;;1.83;1.37;;;22.10;77.10;;;;;;6165966;23;20712;-26
2023/08/16 03:24:22;;;;;;;2.47;1.40;;;22.10;77.30;;;;;;6157535;23;20187;-27
2023/08/16 03:26:47;;;;;;;3.33;1.50;;;22.10;77.30;;;;;;6142398;23;20005;-26
2023/08/16 03:29:13;;;;;;;2.27;1.40;;;22.00;77.40;;;;;;6153090;23;20349;-26
2023/08/16 03:31:39;;;;;;;2.78;1.50;;;22.00;77.50;;;;;;6166941;23;20057;-26
2023/08/16 03:34:05;;;;;;;2.00;1.40;;;22.00;77.50;;;;;;6163170;23;20009;-26
2023/08/16 03:36:30;;;;;;;2.60;1.77;;;22.00;77.60;;;;;;6168086;23;20400;-26
2023/08/16 03:38:56;;;;;;;3.00;1.67;;;21.90;77.60;;;;;;6162431;23;20108;-26
2023/08/16 03:41:22;;;;;;;3.70;1.60;;;21.90;77.70;;;;;;6160664;23;20621;-26
2023/08/16 03:43:47;;;;;;;2.47;1.63;;;21.90;77.80;;;;;;6168955;23;20114;-26
2023/08/16 03:46:13;;;;;;;3.17;1.60;;;21.90;77.90;;;;;;6153421;23;20159;-26
2023/08/16 03:48:39;;;;;;;2.83;1.50;;;21.90;78.10;;;;;;6169732;23;20012;-27
2023/08/16 03:51:05;;;;;;;2.20;1.43;;;21.90;78.10;;;;;;6158634;23;20001;-26
2023/08/16 03:53:30;;;;;;;1.95;1.48;;;21.90;78.10;;;;;;6140638;23;20013;-26
2023/08/16 03:55:57;;;;;;;2.87;1.60;;;21.90;78.10;;;;;;6159463;23;20024;-26
2023/08/16 03:58:23;;;;;;;3.22;1.70;;;21.90;78.10;;;;;;6166126;23;20272;-26
2023/08/16 04:00:51;;;;;;;2.65;1.80;;;21.90;78.10;;;;;;6155612;23;20001;-26
2023/08/16 04:03:17;;;;;;;3.30;1.90;;;21.90;78.20;;;;;;6164293;23;19998;-27
2023/08/16 04:05:43;;;;;;;2.37;1.70;;;21.80;78.10;;;;;;6164155;23;20055;-26
2023/08/16 04:08:09;;;;;;;2.50;1.98;;;21.80;78.20;;;;;;6160203;23;20005;-26
2023/08/16 04:10:35;;;;;;;2.65;1.90;;;21.80;78.40;;;;;;6158374;23;20714;-26
2023/08/16 04:13:01;;;;;;;2.78;1.92;;;21.70;78.40;;;;;;6163748;23;20036;-26
2023/08/16 04:15:27;;;;;;;3.70;2.10;;;21.70;78.40;;;;;;6104071;23;20303;-26
2023/08/16 04:17:54;;;;;;;3.25;2.10;;;21.70;78.50;;;;;;6167295;23;20041;-26
2023/08/16 04:20:19;;;;;;;3.97;1.83;;;21.70;78.50;;;;;;6166034;23;20001;-26
2023/08/16 04:22:45;;;;;;;2.90;2.00;;;21.70;78.50;;;;;;6161890;23;20015;-26
2023/08/16 04:25:11;;;;;;;3.10;2.00;;;21.70;78.60;;;;;;6156151;23;20261;-26
2023/08/16 04:27:36;;;;;;;3.70;1.90;;;21.70;78.70;;;;;;6167071;23;20005;-26
2023/08/16 04:30:03;;;;;;;3.08;1.70;;;21.70;78.70;;;;;;6159188;23;20009;-26
2023/08/16 04:32:29;;;;;;;1.87;1.57;;;21.70;78.90;;;;;;6163169;23;20231;-26
2023/08/16 04:34:55;;;;;;;2.65;1.80;;;21.70;78.90;;;;;;6166900;23;20016;-26
2023/08/16 04:37:20;;;;;;;3.50;1.85;;;21.70;78.90;;;;;;6158521;23;20203;-26
2023/08/16 04:39:46;;;;;;;3.33;1.93;;;21.70;79.00;;;;;;6169599;23;20013;-26
2023/08/16 04:42:12;;;;;;;3.00;1.90;;;21.70;78.90;;;;;;6153981;23;20532;-27
2023/08/16 04:44:38;;;;;;;4.50;2.38;;;21.70;79.10;;;;;;6169154;23;19997;-26
2023/08/16 04:47:04;;;;;;;3.43;2.03;;;21.60;78.90;;;;;;6154874;23;20005;-26
2023/08/16 04:49:32;;;;;;;3.22;2.08;;;21.60;79.00;;;;;;6141234;23;20097;-26
2023/08/16 04:51:58;;;;;;;4.22;2.20;;;21.60;79.10;;;;;;6164377;23;20096;-26
2023/08/16 04:54:23;;;;;;;2.93;2.10;;;21.60;79.20;;;;;;6162407;23;20310;-26
2023/08/16 04:56:49;;;;;;;4.10;2.25;;;21.60;79.20;;;;;;6131200;23;20436;-26
2023/08/16 04:59:16;;;;;;;3.88;2.08;;;21.50;79.20;;;;;;6162043;23;20191;-27
2023/08/16 05:01:42;;;;;;;2.60;1.93;;;21.50;79.40;;;;;;6153993;23;19997;-27
2023/08/16 05:04:09;;;;;;;3.47;2.25;;;21.50;79.40;;;;;;6150289;23;20001;-26
2023/08/16 05:06:36;;;;;;;3.10;2.05;;;21.50;79.40;;;;;;6159319;23;20009;-26
2023/08/16 05:09:02;;;;;;;2.67;1.77;;;21.50;79.60;;;;;;6157467;23;20320;-26
2023/08/16 05:11:29;;;;;;;3.03;2.00;;;21.50;79.70;;;;;;6154333;23;20416;-26
2023/08/16 05:13:55;;;;;;;4.00;2.50;;;21.50;79.70;;;;;;6166983;23;20512;-26
2023/08/16 05:16:21;;;;;;;4.40;2.47;;;21.40;79.70;;;;;;6107740;23;20009;-26
2023/08/16 05:18:46;;;;;;;3.30;2.50;;;21.40;79.70;;;;;;6133802;23;20451;-26
2023/08/16 05:21:12;;;;;;;4.45;2.33;;;21.40;79.80;;;;;;6166564;23;20037;-26
2023/08/16 05:23:38;;;;;;;3.63;2.27;;;21.40;79.80;;;;;;6156832;23;20600;-26
2023/08/16 05:26:04;;;;;;;2.97;2.10;;;21.30;79.80;;;;;;6129405;23;20232;-26
2023/08/16 05:28:30;;;;;;;4.53;2.60;;;21.30;79.90;;;;;;6164257;23;20020;-26
2023/08/16 05:30:55;;;;;;;3.90;2.50;;;21.30;80.00;;;;;;6171284;23;20012;-26
2023/08/16 05:33:21;;;;;;;3.88;2.42;;;21.30;79.90;;;;;;6155338;23;20448;-26
2023/08/16 05:35:47;;;;;;;3.57;2.43;;;21.30;80.00;;;;;;6167816;23;20200;-26
2023/08/16 05:38:12;;;;;;;4.47;2.57;;;21.30;80.10;;;;;;6169670;23;20231;-27
2023/08/16 05:40:39;;;;;;;4.17;2.60;;;21.20;80.20;;;;;;6123982;23;20231;-26
2023/08/16 05:43:04;;;;;;;3.60;2.47;;;21.20;80.40;;;;;;6142458;23;20099;-26
2023/08/16 05:45:31;;;;;;;4.38;2.40;;;21.20;80.80;;;;;;6165925;23;20363;-25
2023/08/16 05:47:56;;;;;;;4.78;2.47;;;21.20;80.80;;;;;;6157727;23;20317;-24
2023/08/16 05:50:23;;;;;;;4.53;2.37;;;21.20;81.10;;;;;;6140724;23;20040;-25
2023/08/16 05:52:49;;;;;;;3.75;2.60;;;21.30;81.30;;;;;;6168920;23;20171;-24
2023/08/16 05:55:14;;;;;;;4.43;2.40;;;21.40;81.40;;;;;;6165015;23;20012;-24
2023/08/16 05:57:40;;;;;;;3.60;2.10;;;21.40;81.50;;;;;;6157259;23;20269;-23
2023/08/16 06:00:07;;;;;;;4.20;2.17;;;21.40;81.60;;;;;;6167596;23;20009;-23
2023/08/16 06:02:33;;;;;;;4.00;2.60;;;21.50;81.80;;;;;;6163468;23;20641;-23
2023/08/16 06:04:59;;;;;;;5.13;2.60;;;21.50;81.70;;;;;;6157906;23;20004;-23
2023/08/16 06:07:26;;;;;;;4.28;2.50;;;21.60;81.70;;;;;;6166956;23;20084;-25
2023/08/16 06:09:52;;;;;;;4.38;2.47;;;21.60;81.80;;;;;;6161926;23;20381;-23
2023/08/16 06:12:17;;;;;;;4.90;2.70;;;21.60;81.80;;;;;;6159018;23;20059;-24
2023/08/16 06:14:43;;;;;;;4.67;2.70;;;21.70;81.90;;;;;;6165934;23;20005;-23
2023/08/16 06:17:09;;;;;;;4.60;3.08;;;21.70;81.90;;;;;;6160819;23;20005;-25
2023/08/16 06:19:35;;;;;;;3.97;2.50;;;21.70;81.90;;;;;;6155269;23;20440;-23
2023/08/16 06:22:00;;;;;;;4.50;2.88;;;21.80;81.80;;;;;;6141969;23;20108;-23
2023/08/16 06:24:26;;;;;;;4.00;2.37;;;21.80;81.80;;;;;;6164757;23;20556;-23
2023/08/16 06:26:52;;;;;;;4.55;2.67;;;21.80;81.70;;;;;;6164057;23;20009;-24
2023/08/16 06:29:17;;;;;;;4.03;2.57;;;21.90;81.80;;;;;;6148867;23;20456;-23
2023/08/16 06:31:46;;;;;;;4.45;2.83;;;21.90;82.00;;;;;;6168537;23;20008;-23
2023/08/16 06:34:12;;;;;;;5.47;2.95;;;21.90;82.00;;;;;;6159108;23;20100;-25
2023/08/16 06:36:37;;;;;;;4.83;2.73;;;21.90;81.80;;;;;;6156405;23;20080;-24
2023/08/16 06:39:03;;;;;;;4.55;3.00;;;21.90;81.80;;;;;;6139646;23;20008;-24
2023/08/16 06:41:29;;;;;;;6.23;2.93;;;22.00;81.80;;;;;;6159713;23;20221;-22
2023/08/16 06:43:55;;;;;;;4.10;2.83;;;22.00;81.80;;;;;;6160510;23;20317;-24
2023/08/16 06:46:20;;;;;;;4.63;2.50;;;22.00;81.90;;;;;;6161685;23;20318;-23
2023/08/16 06:48:47;;;;;;;4.88;3.20;;;22.00;81.80;;;;;;6161850;23;20021;-23
2023/08/16 06:51:13;;;;;;;4.55;2.90;;;22.10;81.90;;;;;;6141300;23;21213;-23
2023/08/16 06:53:40;;;;;;;4.60;2.90;;;22.10;81.90;;;;;;6167025;23;20084;-26
2023/08/16 06:56:06;;;;;;;4.57;2.70;;;22.10;82.00;;;;;;6157356;23;20040;-26
2023/08/16 06:58:32;;;;;;;4.78;2.88;;;22.10;82.00;;;;;;6155798;23;20029;-26
2023/08/16 07:00:57;;;;;;;4.50;2.83;;;22.20;82.00;;;;;;6156592;23;20001;-26
2023/08/16 07:03:23;;;;;;;5.57;2.85;;;22.20;82.00;;;;;;6163788;23;20199;-26
2023/08/16 07:05:51;;;;;;;4.40;2.73;;;22.20;82.10;;;;;;6114948;23;20110;-26
2023/08/16 07:08:17;;;;;;;4.93;3.13;;;22.20;82.30;;;;;;6150344;23;20305;-26
2023/08/16 07:10:43;;;;;;;3.80;2.92;;;22.20;82.20;;;;;;6163938;23;20428;-26
2023/08/16 07:13:09;;;;;;;3.93;2.80;;;22.30;82.40;;;;;;6155167;23;20001;-26
2023/08/16 07:15:34;;;;;;;4.13;2.83;;;22.30;82.60;;;;;;6158530;23;20031;-26
2023/08/16 07:18:01;;;;;;;5.20;2.80;;;22.40;82.60;;;;;;6138262;23;20099;-26
2023/08/16 07:20:26;;;;;;;4.15;2.63;;;22.40;82.70;;;;;;6132439;23;20013;-26
2023/08/16 07:22:52;;;;;;;4.20;2.85;;;22.50;82.80;;;;;;6151509;23;21088;-26
2023/08/16 07:25:18;;;;;;;5.03;2.87;;;22.60;83.60;;;;;;6163772;23;20027;-26
2023/08/16 07:27:44;;;;;;;4.53;2.75;;;22.60;82.70;;;;;;6157823;23;20009;-26
2023/08/16 07:30:10;;;;;;;4.53;2.90;;;22.70;82.80;;;;;;6163154;23;20008;-26
2023/08/16 07:32:35;;;;;;;5.57;3.00;;;22.70;82.80;;;;;;6158195;23;20001;-26
2023/08/16 07:35:02;;;;;;;5.28;3.13;;;22.90;83.10;;;;;;6166138;23;20092;-26
2023/08/16 07:37:31;;;;;;;3.90;2.95;;;23.10;83.60;;;;;;6167269;23;20352;-26
2023/08/16 07:39:58;;;;;;;6.07;3.07;;;23.00;83.30;;;;;;6150607;23;20265;-26
2023/08/16 07:42:24;;;;;;;4.75;2.95;;;23.10;83.20;;;;;;6154316;23;20009;-26
2023/08/16 07:44:50;;;;;;;5.10;3.15;;;23.20;83.20;;;;;;6162852;23;20002;-26
2023/08/16 07:47:16;;;;;;;4.27;2.80;;;23.30;83.20;;;;;;6153570;23;20076;-26
2023/08/16 07:49:41;;;;;;;5.38;3.05;;;23.40;83.10;;;;;;6134833;23;20238;-26
2023/08/16 07:52:07;;;;;;;4.50;2.90;;;23.50;83.00;;;;;;6168183;23;20012;-26
2023/08/16 07:54:33;;;;;;;3.83;2.83;;;23.50;82.70;;;;;;6153190;23;20686;-26
2023/08/16 07:56:59;;;;;;;4.33;2.90;;;23.60;82.60;;;;;;6163903;23;20013;-27
2023/08/16 07:59:24;;;;;;;5.25;3.10;;;23.70;82.70;;;;;;6134518;23;20606;-26
2023/08/16 08:01:51;;;;;;;4.38;3.10;;;23.70;82.40;;;;;;6163197;23;20028;-26
2023/08/16 08:04:18;;;;;;;4.50;2.97;;;23.80;82.40;;;;;;6124695;23;20097;-25
2023/08/16 08:06:44;;;;;;;5.68;3.03;;;23.80;82.40;;;;;;6164575;23;20035;-23
2023/08/16 08:09:10;;;;;;;4.03;2.90;;;23.80;82.20;;;;;;6137846;23;20063;-25
2023/08/16 08:11:39;;;;;;;5.25;3.05;;;23.90;82.10;;;;;;6150611;23;20013;-24
2023/08/16 08:14:05;;;;;;;4.23;2.77;;;23.90;81.90;;;;;;6164151;23;20021;-23
2023/08/16 08:16:31;;;;;;;4.70;2.95;;;23.90;81.90;;;;;;6109239;23;20608;-24
2023/08/16 08:18:57;;;;;;;5.32;2.95;;;24.00;81.90;;;;;;6155049;23;20020;-24
2023/08/16 08:21:23;;;;;;;4.05;2.85;;;24.00;82.10;;;;;;6166541;23;20477;-25
2023/08/16 08:23:49;;;;;;;5.97;2.60;;;24.00;82.20;;;;;;6169073;23;20420;-25
2023/08/16 08:26:16;;;;;;;4.85;2.83;;;24.00;82.10;;;;;;6156957;23;20743;-25
2023/08/16 08:28:42;;;;;;;5.85;2.67;;;24.10;82.00;;;;;;6143205;23;20001;-23
2023/08/16 08:31:08;;;;;;;5.10;2.72;;;24.10;81.90;;;;;;6166272;23;20036;-24
2023/08/16 08:33:34;;;;;;;4.17;2.60;;;24.10;81.90;;;;;;6155259;23;20044;-23
2023/08/16 08:36:00;;;;;;;4.10;2.70;;;24.20;82.00;;;;;;6166700;23;20005;-23
2023/08/16 08:38:26;;;;;;;4.15;2.55;;;24.20;81.90;;;;;;6159599;23;20009;-23
2023/08/16 08:40:59;;;;;;;4.43;2.60;;;24.30;82.00;;;;;;6159978;23;19997;-24
2023/08/16 08:43:33;;;;;;;3.92;2.58;;;24.30;82.00;;;;;;6165705;23;20005;-24
2023/08/16 08:46:00;;;;;;;4.18;2.30;;;24.30;81.80;;;;;;6162798;23;20005;-25
2023/08/16 08:48:29;;;;;;;3.70;2.33;;;24.40;82.00;;;;;;6165203;23;20077;-25
2023/08/16 08:50:56;;;;;;;4.28;2.90;;;24.40;81.80;;;;;;6153332;23;20008;-24
2023/08/16 08:53:23;;;;;;;3.70;2.60;;;24.50;81.90;;;;;;6170155;23;20005;-24
2023/08/16 08:55:54;;;;;;;4.65;2.72;;;24.50;82.00;;;;;;6166096;23;20809;-24
2023/08/16 08:58:21;;;;;;;3.47;2.83;;;24.50;81.80;;;;;;6157167;23;20006;-23
2023/08/16 09:00:48;;;;;;;3.97;2.90;;;24.60;81.80;;;;;;6161034;23;19993;-24
2023/08/16 09:03:18;;;;;;;4.82;2.90;;;24.70;81.80;;;;;;6167417;23;20012;-23
2023/08/16 09:05:52;;;;;;;4.30;3.00;;;24.70;81.70;;;;;;6153765;23;20005;-25
2023/08/16 09:08:20;;;;;;;3.95;2.83;;;24.80;81.60;;;;;;6162034;23;20616;-23
2023/08/16 09:10:46;;;;;;;5.63;3.00;;;24.80;81.60;;;;;;6138576;23;20035;-24
2023/08/16 09:13:14;;;;;;;4.53;2.60;;;24.80;81.60;;;;;;6157655;23;20509;-24
2023/08/16 09:15:40;;;;;;;4.68;2.60;;;24.80;81.60;;;;;;6165338;23;20012;-26
2023/08/16 09:18:17;;;;;;;4.10;2.60;;;24.90;81.40;;;;;;6159892;23;20010;-26
2023/08/16 09:20:44;;;;;;;3.45;2.53;;;24.90;80.90;;;;;;6163664;23;20055;-26
2023/08/16 09:23:13;;;;;;;3.88;2.38;;;24.90;81.00;;;;;;6156495;23;20317;-26
2023/08/16 09:25:39;;;;;;;3.45;2.58;;;24.90;80.90;;;;;;6172748;23;20400;-27
2023/08/16 09:28:09;;;;;;;4.25;2.40;;;25.00;80.90;;;;;;6154958;23;20009;-26
2023/08/16 09:30:35;;;;;;;3.40;2.20;;;25.00;80.60;;;;;;6167442;23;20036;-26
2023/08/16 09:33:01;;;;;;;3.53;2.30;;;25.00;80.50;;;;;;6160057;23;20094;-26
2023/08/16 09:35:32;;;;;;;4.72;2.28;;;25.00;80.30;;;;;;6160580;23;20016;-26
2023/08/16 09:37:59;;;;;;;3.63;2.00;;;25.00;80.20;;;;;;6135683;23;20020;-26
2023/08/16 09:40:25;;;;;;;2.73;1.83;;;25.10;80.20;;;;;;6139215;23;20134;-26
2023/08/16 09:42:57;;;;;;;2.28;1.58;;;25.10;80.10;;;;;;6155418;23;20514;-26
2023/08/16 09:45:41;;;;;;;2.95;1.42;;;25.10;79.70;;;;;;6165497;23;20086;-26
2023/08/16 09:48:09;;;;;;;2.08;1.35;;;25.20;78.60;;;;;;6159271;23;20056;-26
2023/08/16 09:50:35;;;;;;;2.13;1.33;;;25.20;79.40;;;;;;6156009;23;20337;-26
2023/08/16 09:53:05;;;;;;;1.93;1.20;;;25.30;79.50;;;;;;6162225;23;20016;-26
2023/08/16 09:55:32;;;;;;;1.80;1.27;;;25.30;78.70;;;;;;6169016;23;20730;-26
2023/08/16 09:58:00;;;;;;;2.63;1.48;;;25.30;79.30;;;;;;6155307;23;20436;-26
2023/08/16 10:00:30;;;;;;;2.85;1.70;;;25.30;78.20;;;;;;6167305;23;20005;-26
2023/08/16 10:02:57;;;;;;;2.72;1.58;;;25.30;77.70;;;;;;6160251;23;20097;-26
2023/08/16 10:05:25;;;;;;;2.30;1.50;;;25.30;77.90;;;;;;6159818;23;20055;-26
2023/08/16 10:07:52;;;;;;;2.85;1.60;;;25.20;77.60;;;;;;6162466;23;20009;-26
2023/08/16 10:10:18;;;;;;;2.03;1.40;;;25.30;78.00;;;;;;6168975;23;20012;-26
2023/08/16 10:12:46;;;;;;;4.70;1.75;;;25.30;78.40;;;;;;6164679;23;20009;-26
2023/08/16 10:15:14;;;;;;;3.67;1.60;;;25.40;78.90;;;;;;6155674;23;20028;-27
2023/08/16 10:17:41;;;;;;;4.73;1.93;;;25.50;79.80;;;;;;6161613;23;20009;-26
2023/08/16 10:20:28;;;;;;;3.08;1.70;;;25.70;79.90;;;;;;6162898;23;20608;-26
2023/08/16 10:23:02;;;;;;;4.43;1.80;;;25.90;78.70;;;;;;6111030;23;20009;-27
2023/08/16 10:25:38;;;;;;;1.55;1.40;;;26.10;79.30;;;;;;6162855;23;20001;-26
2023/08/16 10:28:05;;;;;;;2.00;1.42;;;26.30;78.40;;;;;;6156741;23;20013;-27
2023/08/16 10:30:33;;;;;;;2.80;1.57;;;26.40;78.60;;;;;;6158730;23;20009;-26
2023/08/16 10:33:21;;;;;;;2.58;1.65;;;26.50;78.00;;;;;;6167346;23;20016;-26
2023/08/16 10:35:50;;;;;;;1.85;1.50;;;26.60;77.30;;;;;;6143538;23;20016;-27
2023/08/16 10:38:18;;;;;;;2.55;1.50;;;26.50;76.90;;;;;;6151685;23;20246;-26
2023/08/16 10:40:58;;;;;;;2.10;1.60;;;26.50;76.80;;;;;;6164595;23;20015;-27
2023/08/16 10:43:32;;;;;;;3.40;1.57;;;26.60;75.60;;;;;;6162311;23;20414;-27
2023/08/16 10:45:58;;;;;;;2.33;1.52;;;26.60;76.30;;;;;;6155477;23;20001;-27
2023/08/16 10:48:23;;;;;;;3.40;1.65;;;26.60;77.00;;;;;;6139444;23;20273;-27
2023/08/16 10:50:59;;;;;;;3.40;1.63;;;26.60;77.20;;;;;;6161310;23;20012;-26
2023/08/16 10:53:25;;;;;;;2.97;1.60;;;26.70;76.40;;;;;;6151544;23;20518;-26
2023/08/16 10:55:58;;;;;;;2.58;1.77;;;26.70;77.40;;;;;;6136846;23;20005;-26
2023/08/16 10:58:25;;;;;;;3.05;1.45;;;26.90;77.60;;;;;;6160640;23;20344;-26
2023/08/16 11:00:59;;;;;;;2.83;1.77;;;27.00;77.70;;;;;;6151577;23;20063;-26
2023/08/16 11:03:37;;;;;;;2.55;1.73;;;27.20;76.80;;;;;;6140952;23;20012;-26
2023/08/16 11:06:12;;;;;;;2.83;1.90;;;27.30;76.80;;;;;;6161452;23;20009;-27
2023/08/16 11:08:42;;;;;;;2.85;1.88;;;27.50;76.50;;;;;;6148900;23;20080;-26
2023/08/16 11:11:09;;;;;;;3.10;1.80;;;27.70;77.10;;;;;;6168073;23;20059;-26
2023/08/16 11:13:35;;;;;;;2.80;1.60;;;27.90;77.60;;;;;;6163072;23;20005;-26
2023/08/16 11:16:01;;;;;;;2.90;1.60;;;28.10;77.70;;;;;;6153511;23;20031;-26
2023/08/16 11:18:28;;;;;;;3.10;1.85;;;28.30;78.60;;;;;;6116730;23;20013;-27
2023/08/16 11:20:54;;;;;;;2.75;1.80;;;28.60;79.20;;;;;;6165449;23;20155;-26
2023/08/16 11:23:21;;;;;;;3.35;2.40;;;28.90;79.50;;;;;;6129994;23;20080;-27
2023/08/16 11:25:47;;;;;;;2.73;1.90;;;29.30;78.70;;;;;;6158163;23;20005;-27
2023/08/16 11:28:17;;;;;;;2.83;1.95;;;29.50;77.80;;;;;;6165193;23;20009;-27
2023/08/16 11:30:43;;;;;;;3.63;2.50;;;29.70;76.40;;;;;;6150088;23;20092;-27
2023/08/16 11:33:15;;;;;;;3.30;1.97;;;29.90;75.90;;;;;;6168057;23;20080;-27
2023/08/16 11:35:41;;;;;;;3.58;2.22;;;30.00;73.40;;;;;;6138780;23;20017;-27
2023/08/16 11:38:07;;;;;;;2.88;1.95;;;30.00;73.70;;;;;;6156574;23;20346;-27
2023/08/16 11:40:33;;;;;;;2.53;1.80;;;29.90;73.00;;;;;;6163713;23;20158;-27
2023/08/16 11:43:04;;;;;;;2.45;1.90;;;29.90;72.60;;;;;;6165099;23;20605;-27
2023/08/16 11:45:30;;;;;;;3.05;2.20;;;29.80;70.90;;;;;;6165943;23;20012;-27
2023/08/16 11:47:56;;;;;;;2.50;2.07;;;29.70;71.30;;;;;;6150116;23;20037;-27
2023/08/16 11:50:24;;;;;;;3.65;1.90;;;29.60;70.80;;;;;;6166375;23;20421;-27
2023/08/16 11:53:00;;;;;;;3.87;1.90;;;29.40;70.30;;;;;;6163715;23;20071;-27
2023/08/16 11:55:29;;;;;;;2.72;1.77;;;29.20;69.00;;;;;;6151237;23;20261;-27
2023/08/16 11:58:05;;;;;;;2.90;1.92;;;29.00;69.60;;;;;;6154820;23;20205;-27
2023/08/16 12:00:33;;;;;;;2.55;1.60;;;28.80;69.00;;;;;;6164561;23;20004;-27
2023/08/16 12:03:03;;;;;;;3.40;2.10;;;28.70;69.90;;;;;;6152532;23;20104;-27
2023/08/16 12:05:36;;;;;;;3.63;2.00;;;28.60;69.50;;;;;;6166567;23;20009;-27
2023/08/16 12:08:06;;;;;;;3.55;1.88;;;28.40;69.30;;;;;;6162813;23;20265;-27
2023/08/16 12:10:32;;;;;;;3.17;1.88;;;28.20;69.50;;;;;;6158424;23;20016;-27
2023/08/16 12:12:59;;;;;;;2.78;2.00;;;28.10;70.20;;;;;;6133952;23;20035;-27
2023/08/16 12:15:27;;;;;;;4.72;2.20;;;28.00;70.80;;;;;;6167371;23;20352;-27
2023/08/16 12:17:56;;;;;;;4.13;1.90;;;28.00;71.00;;;;;;6153830;23;20388;-26
2023/08/16 12:20:26;;;;;;;3.10;2.00;;;28.10;71.70;;;;;;6168966;23;20059;-27
2023/08/16 12:22:54;;;;;;;3.90;2.00;;;28.10;72.20;;;;;;6161293;23;19997;-26
2023/08/16 12:25:20;;;;;;;2.42;1.90;;;28.20;73.10;;;;;;6158168;23;20549;-27
2023/08/16 12:27:45;;;;;;;2.25;1.90;;;28.40;72.80;;;;;;6160109;23;20101;-27
2023/08/16 12:30:11;;;;;;;2.80;2.10;;;28.60;73.20;;;;;;6166101;23;20618;-27
2023/08/16 12:32:37;;;;;;;3.28;2.20;;;28.80;73.60;;;;;;6167577;23;20016;-27
2023/08/16 12:35:03;;;;;;;2.75;2.05;;;29.10;73.30;;;;;;6154417;23;20317;-27
2023/08/16 12:37:29;;;;;;;3.58;1.98;;;29.30;72.80;;;;;;6167919;23;20020;-27
2023/08/16 12:39:55;;;;;;;3.03;2.20;;;29.50;72.60;;;;;;6149924;23;20521;-27
2023/08/16 12:42:21;;;;;;;3.83;1.67;;;29.60;71.80;;;;;;6167580;23;20082;-27
2023/08/16 12:44:47;;;;;;;3.20;1.70;;;29.70;71.10;;;;;;6161785;23;20020;-27
2023/08/16 12:47:12;;;;;;;2.95;1.80;;;29.90;70.80;;;;;;6167460;23;20057;-27